createdAt,value
2016-04-10T00:00:37.342Z,0
2016-04-10T00:01:37.516Z,0
2016-04-10T00:02:37.535Z,0
2016-04-10T00:03:37.553Z,0
2016-04-10T00:04:37.588Z,0
2016-04-10T00:05:37.605Z,0
2016-04-10T00:06:37.639Z,0
2016-04-10T00:07:37.642Z,0
2016-04-10T00:08:37.661Z,0
2016-04-10T00:09:37.679Z,0
2016-04-10T00:10:37.697Z,0
2016-04-10T00:11:37.715Z,0
2016-04-10T00:12:37.734Z,0
2016-04-10T00:13:37.752Z,0
2016-04-10T00:14:37.785Z,0
2016-04-10T00:15:37.805Z,0
2016-04-10T00:16:37.870Z,0
2016-04-10T00:17:37.840Z,0
2016-04-10T00:18:37.860Z,0
2016-04-10T00:19:37.893Z,0
2016-04-10T00:20:37.912Z,0
2016-04-10T00:21:37.914Z,0
2016-04-10T00:22:37.948Z,0
2016-04-10T00:23:37.966Z,0
2016-04-10T00:24:37.985Z,0
2016-04-10T00:25:38.019Z,0
2016-04-10T00:26:38.053Z,0
2016-04-10T00:27:38.055Z,0
2016-04-10T00:28:38.089Z,0
2016-04-10T00:29:38.092Z,0
2016-04-10T00:30:38.094Z,0
2016-04-10T00:31:38.128Z,0
2016-04-10T00:32:38.163Z,0
2016-04-10T00:33:38.181Z,0
2016-04-10T00:34:38.199Z,0
2016-04-10T00:35:38.233Z,0
2016-04-10T00:36:38.236Z,0
2016-04-10T00:37:38.269Z,0
2016-04-10T00:38:38.273Z,0
2016-04-10T00:39:38.322Z,0
2016-04-10T00:40:38.310Z,0
2016-04-10T00:41:38.327Z,0
2016-04-10T00:42:38.361Z,0
2016-04-10T00:43:38.380Z,0
2016-04-10T00:44:38.398Z,0
2016-04-10T00:45:38.416Z,0
2016-04-10T00:46:38.418Z,0
2016-04-10T00:47:38.453Z,0
2016-04-10T00:48:38.471Z,0
2016-04-10T00:49:38.490Z,0
2016-04-10T00:50:38.507Z,0
2016-04-10T00:51:38.542Z,0
2016-04-10T00:52:39.982Z,0
2016-04-10T00:53:38.641Z,0
2016-04-10T00:54:38.628Z,0
2016-04-10T00:55:38.646Z,0
2016-04-10T00:56:38.648Z,0
2016-04-10T00:57:38.667Z,0
2016-04-10T00:58:38.686Z,0
2016-04-10T00:59:38.703Z,0
2016-04-10T01:00:38.753Z,0
2016-04-10T01:01:38.756Z,0
2016-04-10T01:02:38.775Z,0
2016-04-10T01:03:38.793Z,0
2016-04-10T01:04:38.811Z,0
2016-04-10T01:05:38.856Z,0
2016-04-10T01:06:38.912Z,0
2016-04-10T01:07:39.003Z,0
2016-04-10T01:08:39.031Z,0
2016-04-10T01:09:39.088Z,0
2016-04-10T01:10:39.162Z,0
2016-04-10T01:11:39.194Z,0
2016-04-10T01:12:39.212Z,0
2016-04-10T01:13:39.245Z,0
2016-04-10T01:14:39.121Z,0
2016-04-10T01:15:39.304Z,0
2016-04-10T01:16:39.327Z,0
2016-04-10T01:17:39.366Z,0
2016-04-10T01:18:39.405Z,0
2016-04-10T01:19:39.413Z,0
2016-04-10T01:20:39.419Z,0
2016-04-10T01:21:39.438Z,0
2016-04-10T01:22:39.615Z,0
2016-04-10T01:23:39.494Z,0
2016-04-10T01:24:39.515Z,0
2016-04-10T01:25:39.535Z,0
2016-04-10T01:26:39.553Z,0
2016-04-10T01:27:39.588Z,0
2016-04-10T01:28:39.608Z,0
2016-04-10T01:29:39.627Z,0
2016-04-10T01:30:39.645Z,0
2016-04-10T01:31:39.664Z,0
2016-04-10T01:32:39.682Z,0
2016-04-10T01:33:39.718Z,0
2016-04-10T01:34:39.720Z,0
2016-04-10T01:35:39.738Z,0
2016-04-10T01:36:39.773Z,0
2016-04-10T01:37:39.931Z,0
2016-04-10T01:38:39.810Z,0
2016-04-10T01:39:39.827Z,0
2016-04-10T01:40:39.846Z,0
2016-04-10T01:41:39.864Z,0
2016-04-10T01:42:39.898Z,0
2016-04-10T01:43:39.901Z,0
2016-04-10T01:44:39.919Z,0
2016-04-10T01:45:39.954Z,0
2016-04-10T01:46:39.956Z,0
2016-04-10T01:47:39.990Z,0
2016-04-10T01:48:40.009Z,0
2016-04-10T01:49:40.042Z,0
2016-04-10T01:50:40.045Z,0
2016-04-10T01:51:40.063Z,0
2016-04-10T01:52:39.581Z,0
2016-04-10T01:53:40.100Z,0
2016-04-10T01:54:40.117Z,0
2016-04-10T01:55:40.136Z,0
2016-04-10T01:56:40.170Z,0
2016-04-10T01:57:40.188Z,0
2016-04-10T01:58:40.207Z,0
2016-04-10T01:59:40.225Z,0
2016-04-10T02:00:40.244Z,0
2016-04-10T02:01:40.277Z,0
2016-04-10T02:02:40.280Z,0
2016-04-10T02:03:40.299Z,0
2016-04-10T02:04:40.316Z,0
2016-04-10T02:05:40.366Z,0
2016-04-10T02:06:40.368Z,0
2016-04-10T02:07:40.887Z,0
2016-04-10T02:08:40.406Z,0
2016-04-10T02:09:40.424Z,0
2016-04-10T02:10:40.443Z,0
2016-04-10T02:11:40.476Z,0
2016-04-10T02:12:40.479Z,0
2016-04-10T02:13:40.498Z,0
2016-04-10T02:14:40.515Z,0
2016-04-10T02:15:40.534Z,0
2016-04-10T02:16:40.568Z,0
2016-04-10T02:17:40.570Z,0
2016-04-10T02:18:40.605Z,0
2016-04-10T02:19:40.623Z,0
2016-04-10T02:20:40.642Z,0
2016-04-10T02:21:39.909Z,0
2016-04-10T02:22:40.709Z,0
2016-04-10T02:23:40.696Z,0
2016-04-10T02:24:40.730Z,0
2016-04-10T02:25:40.733Z,0
2016-04-10T02:26:40.766Z,0
2016-04-10T02:27:40.785Z,0
2016-04-10T02:28:40.803Z,0
2016-04-10T02:29:40.822Z,0
2016-04-10T02:30:40.825Z,0
2016-04-10T02:31:40.858Z,0
2016-04-10T02:32:40.876Z,0
2016-04-10T02:33:40.895Z,0
2016-04-10T02:34:40.913Z,0
2016-04-10T02:35:40.947Z,0
2016-04-10T02:36:40.965Z,0
2016-04-10T02:37:40.983Z,0
2016-04-10T02:38:40.268Z,0
2016-04-10T02:39:41.020Z,0
2016-04-10T02:40:41.023Z,0
2016-04-10T02:41:41.057Z,0
2016-04-10T02:42:41.076Z,0
2016-04-10T02:43:41.094Z,0
2016-04-10T02:44:41.112Z,0
2016-04-10T02:45:41.130Z,0
2016-04-10T02:46:41.148Z,0
2016-04-10T02:47:41.182Z,0
2016-04-10T02:48:41.201Z,0
2016-04-10T02:49:40.469Z,0
2016-04-10T02:50:41.237Z,0
2016-04-10T02:51:41.224Z,0
2016-04-10T02:52:41.258Z,0
2016-04-10T02:53:41.308Z,0
2016-04-10T02:54:41.311Z,0
2016-04-10T02:55:41.329Z,0
2016-04-10T02:56:41.347Z,0
2016-04-10T02:57:41.381Z,0
2016-04-10T02:58:41.400Z,0
2016-04-10T02:59:41.402Z,0
2016-04-10T03:00:41.436Z,0
2016-04-10T03:01:41.454Z,0
2016-04-10T03:02:41.457Z,0
2016-04-10T03:03:41.492Z,0
2016-04-10T03:04:41.494Z,0
2016-04-10T03:05:41.527Z,0
2016-04-10T03:06:41.530Z,0
2016-04-10T03:07:41.564Z,0
2016-04-10T03:08:41.758Z,0
2016-04-10T03:09:41.604Z,0
2016-04-10T03:10:41.622Z,0
2016-04-10T03:11:41.641Z,0
2016-04-10T03:12:41.658Z,0
2016-04-10T03:13:41.677Z,0
2016-04-10T03:14:41.695Z,0
2016-04-10T03:15:41.713Z,0
2016-04-10T03:16:41.748Z,0
2016-04-10T03:17:41.751Z,0
2016-04-10T03:18:41.785Z,0
2016-04-10T03:19:41.787Z,0
2016-04-10T03:20:41.821Z,0
2016-04-10T03:21:41.840Z,0
2016-04-10T03:22:41.873Z,0
2016-04-10T03:23:41.876Z,0
2016-04-10T03:24:41.909Z,0
2016-04-10T03:25:41.913Z,0
2016-04-10T03:26:41.931Z,0
2016-04-10T03:27:41.965Z,0
2016-04-10T03:28:41.984Z,0
2016-04-10T03:29:41.986Z,0
2016-04-10T03:30:42.020Z,0
2016-04-10T03:31:42.054Z,0
2016-04-10T03:32:42.056Z,0
2016-04-10T03:33:42.075Z,0
2016-04-10T03:34:42.077Z,0
2016-04-10T03:35:42.111Z,0
2016-04-10T03:36:42.130Z,0
2016-04-10T03:37:42.147Z,0
2016-04-10T03:38:42.167Z,0
2016-04-10T03:39:42.185Z,0
2016-04-10T03:40:42.203Z,0
2016-04-10T03:41:42.237Z,0
2016-04-10T03:42:42.239Z,0
2016-04-10T03:43:42.258Z,0
2016-04-10T03:44:42.276Z,0
2016-04-10T03:45:42.310Z,0
2016-04-10T03:46:42.157Z,0
2016-04-10T03:47:42.363Z,0
2016-04-10T03:48:42.366Z,0
2016-04-10T03:49:42.367Z,0
2016-04-10T03:50:42.402Z,0
2016-04-10T03:51:42.405Z,0
2016-04-10T03:52:42.438Z,0
2016-04-10T03:53:42.457Z,0
2016-04-10T03:54:42.475Z,0
2016-04-10T03:55:42.493Z,0
2016-04-10T03:56:42.512Z,0
2016-04-10T03:57:42.530Z,0
2016-04-10T03:58:42.548Z,0
2016-04-10T03:59:42.566Z,0
2016-04-10T04:00:42.600Z,0
2016-04-10T04:01:42.620Z,0
2016-04-10T04:02:42.622Z,0
2016-04-10T04:03:42.640Z,0
2016-04-10T04:04:42.658Z,0
2016-04-10T04:05:42.676Z,0
2016-04-10T04:06:42.711Z,0
2016-04-10T04:07:42.728Z,0
2016-04-10T04:08:42.747Z,0
2016-04-10T04:09:42.766Z,0
2016-04-10T04:10:42.784Z,0
2016-04-10T04:11:42.803Z,0
2016-04-10T04:12:42.820Z,0
2016-04-10T04:13:42.839Z,0
2016-04-10T04:14:42.857Z,0
2016-04-10T04:15:42.875Z,0
2016-04-10T04:16:42.894Z,0
2016-04-10T04:17:42.912Z,0
2016-04-10T04:18:42.930Z,0
2016-04-10T04:19:42.963Z,0
2016-04-10T04:20:42.966Z,0
2016-04-10T04:21:42.251Z,0
2016-04-10T04:22:43.004Z,0
2016-04-10T04:23:43.022Z,0
2016-04-10T04:24:43.056Z,0
2016-04-10T04:25:43.059Z,0
2016-04-10T04:26:43.077Z,0
2016-04-10T04:27:43.095Z,0
2016-04-10T04:28:43.129Z,0
2016-04-10T04:29:43.148Z,0
2016-04-10T04:30:43.150Z,0
2016-04-10T04:31:43.184Z,0
2016-04-10T04:32:43.203Z,0
2016-04-10T04:33:43.206Z,0
2016-04-10T04:34:43.223Z,0
2016-04-10T04:35:43.257Z,0
2016-04-10T04:36:43.275Z,0
2016-04-10T04:37:43.294Z,0
2016-04-10T04:38:43.312Z,0
2016-04-10T04:39:43.346Z,0
2016-04-10T04:40:43.364Z,0
2016-04-10T04:41:43.367Z,0
2016-04-10T04:42:43.386Z,0
2016-04-10T04:43:43.419Z,0
2016-04-10T04:44:43.421Z,0
2016-04-10T04:45:43.441Z,0
2016-04-10T04:46:43.474Z,0
2016-04-10T04:47:43.476Z,0
2016-04-10T04:48:43.496Z,0
2016-04-10T04:49:43.529Z,0
2016-04-10T04:50:43.537Z,0
2016-04-10T04:51:43.555Z,0
2016-04-10T04:52:43.589Z,0
2016-04-10T04:53:43.592Z,0
2016-04-10T04:54:43.641Z,0
2016-04-10T04:55:43.629Z,0
2016-04-10T04:56:43.646Z,0
2016-04-10T04:57:43.664Z,0
2016-04-10T04:58:43.684Z,0
2016-04-10T04:59:43.717Z,0
2016-04-10T05:00:43.735Z,0
2016-04-10T05:01:43.770Z,0
2016-04-10T05:02:43.772Z,0
2016-04-10T05:03:43.775Z,0
2016-04-10T05:04:43.809Z,0
2016-04-10T05:05:43.811Z,0
2016-04-10T05:06:43.830Z,0
2016-04-10T05:07:43.864Z,0
2016-04-10T05:08:43.897Z,0
2016-04-10T05:09:43.900Z,0
2016-04-10T05:10:43.919Z,0
2016-04-10T05:11:43.921Z,0
2016-04-10T05:12:43.956Z,0
2016-04-10T05:13:43.958Z,0
2016-04-10T05:14:44.008Z,0
2016-04-10T05:15:44.010Z,0
2016-04-10T05:16:44.029Z,0
2016-04-10T05:17:44.031Z,0
2016-04-10T05:18:44.081Z,0
2016-04-10T05:19:44.083Z,0
2016-04-10T05:20:44.117Z,0
2016-04-10T05:21:44.121Z,0
2016-04-10T05:22:44.138Z,0
2016-04-10T05:23:44.156Z,5
2016-04-10T05:24:44.176Z,5
2016-04-10T05:25:44.193Z,5
2016-04-10T05:26:44.212Z,5
2016-04-10T05:27:44.229Z,5
2016-04-10T05:28:44.248Z,5
2016-04-10T05:29:44.267Z,5
2016-04-10T05:30:44.284Z,5
2016-04-10T05:31:44.303Z,5
2016-04-10T05:32:44.322Z,5
2016-04-10T05:33:44.339Z,5
2016-04-10T05:34:44.359Z,5
2016-04-10T05:35:44.392Z,5
2016-04-10T05:36:44.410Z,5
2016-04-10T05:37:44.414Z,5
2016-04-10T05:38:44.447Z,5
2016-04-10T05:39:44.449Z,5
2016-04-10T05:40:44.469Z,5
2016-04-10T05:41:44.346Z,5
2016-04-10T05:42:44.520Z,5
2016-04-10T05:43:44.539Z,5
2016-04-10T05:44:44.541Z,5
2016-04-10T05:45:44.560Z,5
2016-04-10T05:46:44.593Z,5
2016-04-10T05:47:44.690Z,5
2016-04-10T05:48:44.630Z,5
2016-04-10T05:49:44.946Z,5
2016-04-10T05:50:44.667Z,10
2016-04-10T05:51:44.669Z,10
2016-04-10T05:52:44.704Z,10
2016-04-10T05:53:44.721Z,10
2016-04-10T05:54:44.740Z,10
2016-04-10T05:55:44.774Z,10
2016-04-10T05:56:44.776Z,10
2016-04-10T05:57:44.640Z,10
2016-04-10T05:58:44.813Z,10
2016-04-10T05:59:44.831Z,10
2016-04-10T06:00:44.850Z,10
2016-04-10T06:01:44.868Z,10
2016-04-10T06:02:44.886Z,10
2016-04-10T06:03:44.905Z,10
2016-04-10T06:04:44.923Z,10
2016-04-10T06:05:44.957Z,10
2016-04-10T06:06:44.959Z,10
2016-04-10T06:07:44.978Z,10
2016-04-10T06:08:45.294Z,10
2016-04-10T06:09:45.014Z,10
2016-04-10T06:10:45.049Z,10
2016-04-10T06:11:45.067Z,10
2016-04-10T06:12:45.100Z,10
2016-04-10T06:13:45.089Z,10
2016-04-10T06:14:45.122Z,10
2016-04-10T06:15:45.140Z,10
2016-04-10T06:16:45.158Z,10
2016-04-10T06:17:45.177Z,10
2016-04-10T06:18:45.195Z,10
2016-04-10T06:19:45.244Z,10
2016-04-10T06:20:45.263Z,10
2016-04-10T06:21:45.266Z,10
2016-04-10T06:22:45.304Z,10
2016-04-10T06:23:45.389Z,10
2016-04-10T06:24:45.038Z,10
2016-04-10T06:25:46.015Z,10
2016-04-10T06:26:45.335Z,10
2016-04-10T06:27:45.338Z,10
2016-04-10T06:28:45.371Z,10
2016-04-10T06:29:45.374Z,10
2016-04-10T06:30:45.408Z,10
2016-04-10T06:31:45.426Z,10
2016-04-10T06:32:45.429Z,10
2016-04-10T06:33:45.463Z,10
2016-04-10T06:34:45.482Z,10
2016-04-10T06:35:45.499Z,10
2016-04-10T06:36:45.518Z,10
2016-04-10T06:37:45.552Z,15
2016-04-10T06:38:45.757Z,15
2016-04-10T06:39:45.588Z,10
2016-04-10T06:40:45.607Z,10
2016-04-10T06:41:45.609Z,10
2016-04-10T06:42:45.518Z,10
2016-04-10T06:43:45.646Z,10
2016-04-10T06:44:45.664Z,10
2016-04-10T06:45:45.698Z,10
2016-04-10T06:46:45.717Z,10
2016-04-10T06:47:46.047Z,10
2016-04-10T06:48:45.784Z,10
2016-04-10T06:49:45.756Z,10
2016-04-10T06:50:45.962Z,10
2016-04-10T06:51:45.652Z,10
2016-04-10T06:52:45.827Z,10
2016-04-10T06:53:45.861Z,10
2016-04-10T06:54:45.894Z,10
2016-04-10T06:55:45.897Z,10
2016-04-10T06:56:45.946Z,10
2016-04-10T06:57:45.934Z,10
2016-04-10T06:58:45.936Z,10
2016-04-10T06:59:45.970Z,10
2016-04-10T07:00:45.974Z,10
2016-04-10T07:01:45.991Z,10
2016-04-10T07:02:46.134Z,10
2016-04-10T07:03:46.044Z,10
2016-04-10T07:04:46.282Z,10
2016-04-10T07:05:46.284Z,10
2016-04-10T07:06:46.223Z,10
2016-04-10T07:07:46.290Z,10
2016-04-10T07:08:46.151Z,10
2016-04-10T07:09:46.309Z,10
2016-04-10T07:10:46.312Z,15
2016-04-10T07:11:46.315Z,15
2016-04-10T07:12:46.333Z,15
2016-04-10T07:13:46.337Z,15
2016-04-10T07:14:46.339Z,15
2016-04-10T07:15:46.373Z,20
2016-04-10T07:16:46.406Z,20
2016-04-10T07:17:46.409Z,20
2016-04-10T07:18:46.412Z,20
2016-04-10T07:19:46.461Z,20
2016-04-10T07:20:46.417Z,20
2016-04-10T07:21:46.530Z,20
2016-04-10T07:22:46.485Z,20
2016-04-10T07:23:46.364Z,20
2016-04-10T07:24:46.522Z,20
2016-04-10T07:25:46.541Z,20
2016-04-10T07:26:46.543Z,20
2016-04-10T07:27:46.499Z,20
2016-04-10T07:28:46.564Z,20
2016-04-10T07:29:46.551Z,25
2016-04-10T07:30:46.663Z,25
2016-04-10T07:31:46.682Z,25
2016-04-10T07:32:46.621Z,25
2016-04-10T07:33:46.578Z,25
2016-04-10T07:34:46.658Z,25
2016-04-10T07:35:46.708Z,30
2016-04-10T07:36:46.695Z,30
2016-04-10T07:37:46.776Z,30
2016-04-10T07:38:46.668Z,30
2016-04-10T07:39:46.781Z,30
2016-04-10T07:40:46.783Z,30
2016-04-10T07:41:46.787Z,30
2016-04-10T07:42:46.851Z,30
2016-04-10T07:43:46.823Z,30
2016-04-10T07:44:46.842Z,30
2016-04-10T07:45:46.875Z,30
2016-04-10T07:46:46.878Z,30
2016-04-10T07:47:46.912Z,30
2016-04-10T07:48:46.915Z,30
2016-04-10T07:49:46.964Z,30
2016-04-10T07:50:46.966Z,30
2016-04-10T07:51:46.985Z,30
2016-04-10T07:52:47.003Z,25
2016-04-10T07:53:47.069Z,25
2016-04-10T07:54:47.056Z,30
2016-04-10T07:55:47.058Z,25
2016-04-10T07:56:47.092Z,25
2016-04-10T07:57:47.111Z,25
2016-04-10T07:58:47.129Z,25
2016-04-10T07:59:47.147Z,25
2016-04-10T08:00:47.213Z,25
2016-04-10T08:01:47.230Z,25
2016-04-10T08:02:47.203Z,25
2016-04-10T08:03:47.299Z,25
2016-04-10T08:04:47.255Z,25
2016-04-10T08:05:47.335Z,25
2016-04-10T08:06:47.307Z,25
2016-04-10T08:07:47.356Z,30
2016-04-10T08:08:47.390Z,30
2016-04-10T08:09:47.362Z,30
2016-04-10T08:10:47.379Z,30
2016-04-10T08:11:47.399Z,30
2016-04-10T08:12:47.448Z,30
2016-04-10T08:13:47.466Z,30
2016-04-10T08:14:47.470Z,30
2016-04-10T08:15:47.487Z,30
2016-04-10T08:16:47.505Z,30
2016-04-10T08:17:47.539Z,30
2016-04-10T08:18:47.558Z,30
2016-04-10T08:19:47.561Z,30
2016-04-10T08:20:47.595Z,30
2016-04-10T08:21:47.613Z,30
2016-04-10T08:22:47.631Z,30
2016-04-10T08:23:47.649Z,30
2016-04-10T08:24:47.667Z,30
2016-04-10T08:25:47.685Z,30
2016-04-10T08:26:47.720Z,30
2016-04-10T08:27:47.738Z,25
2016-04-10T08:28:47.757Z,25
2016-04-10T08:29:47.775Z,25
2016-04-10T08:30:47.793Z,25
2016-04-10T08:31:47.827Z,25
2016-04-10T08:32:47.830Z,20
2016-04-10T08:33:47.863Z,25
2016-04-10T08:34:47.882Z,25
2016-04-10T08:35:47.916Z,25
2016-04-10T08:36:47.934Z,25
2016-04-10T08:37:47.953Z,25
2016-04-10T08:38:47.955Z,30
2016-04-10T08:39:47.989Z,25
2016-04-10T08:40:48.008Z,25
2016-04-10T08:41:48.026Z,30
2016-04-10T08:42:48.059Z,30
2016-04-10T08:43:48.063Z,30
2016-04-10T08:44:48.096Z,30
2016-04-10T08:45:48.115Z,30
2016-04-10T08:46:48.134Z,35
2016-04-10T08:47:48.167Z,35
2016-04-10T08:48:48.185Z,35
2016-04-10T08:49:48.204Z,35
2016-04-10T08:50:48.237Z,35
2016-04-10T08:51:48.239Z,35
2016-04-10T08:52:48.274Z,40
2016-04-10T08:53:48.308Z,40
2016-04-10T08:54:48.311Z,40
2016-04-10T08:55:48.344Z,40
2016-04-10T08:56:48.364Z,35
2016-04-10T08:57:48.366Z,35
2016-04-10T08:58:48.399Z,30
2016-04-10T08:59:48.419Z,30
2016-04-10T09:00:48.436Z,30
2016-04-10T09:01:48.455Z,30
2016-04-10T09:02:48.488Z,30
2016-04-10T09:03:48.507Z,30
2016-04-10T09:04:48.541Z,30
2016-04-10T09:05:48.543Z,25
2016-04-10T09:06:48.577Z,25
2016-04-10T09:07:48.596Z,25
2016-04-10T09:08:48.614Z,25
2016-04-10T09:09:48.633Z,25
2016-04-10T09:10:48.651Z,20
2016-04-10T09:11:48.684Z,20
2016-04-10T09:12:49.343Z,20
2016-04-10T09:13:48.737Z,25
2016-04-10T09:14:48.771Z,25
2016-04-10T09:15:48.789Z,30
2016-04-10T09:16:48.823Z,35
2016-04-10T09:17:48.857Z,40
2016-04-10T09:18:48.844Z,40
2016-04-10T09:19:48.862Z,40
2016-04-10T09:20:48.896Z,40
2016-04-10T09:21:48.931Z,40
2016-04-10T09:22:49.542Z,40
2016-04-10T09:23:48.983Z,40
2016-04-10T09:24:48.970Z,40
2016-04-10T09:25:48.988Z,40
2016-04-10T09:26:49.006Z,45
2016-04-10T09:27:49.024Z,45
2016-04-10T09:28:49.199Z,50
2016-04-10T09:29:49.217Z,45
2016-04-10T09:30:49.236Z,40
2016-04-10T09:31:49.238Z,35
2016-04-10T09:32:49.272Z,35
2016-04-10T09:33:49.244Z,35
2016-04-10T09:34:49.293Z,35
2016-04-10T09:35:49.312Z,40
2016-04-10T09:36:49.330Z,40
2016-04-10T09:37:49.333Z,35
2016-04-10T09:38:49.335Z,35
2016-04-10T09:39:49.354Z,35
2016-04-10T09:40:50.310Z,35
2016-04-10T09:41:49.578Z,30
2016-04-10T09:42:49.690Z,30
2016-04-10T09:43:50.709Z,25
2016-04-10T09:44:49.476Z,25
2016-04-10T09:45:52.307Z,25
2016-04-10T09:46:49.560Z,25
2016-04-10T09:47:49.437Z,30
2016-04-10T09:48:49.518Z,25
2016-04-10T09:49:49.521Z,20
2016-04-10T09:50:49.571Z,20
2016-04-10T09:51:49.589Z,20
2016-04-10T09:52:49.623Z,20
2016-04-10T09:53:49.625Z,20
2016-04-10T09:54:49.659Z,25
2016-04-10T09:55:49.662Z,25
2016-04-10T09:56:49.697Z,30
2016-04-10T09:57:49.700Z,35
2016-04-10T09:58:49.842Z,35
2016-04-10T09:59:49.845Z,40
2016-04-10T10:00:50.004Z,45
2016-04-10T10:01:50.038Z,50
2016-04-10T10:02:50.025Z,50
2016-04-10T10:03:50.043Z,45
2016-04-10T10:04:49.858Z,45
2016-04-10T10:05:49.893Z,45
2016-04-10T10:06:49.942Z,50
2016-04-10T10:07:49.945Z,55
2016-04-10T10:08:50.170Z,60
2016-04-10T10:09:49.986Z,55
2016-04-10T10:10:49.864Z,50
2016-04-10T10:11:50.067Z,50
2016-04-10T10:12:50.112Z,60
2016-04-10T10:13:50.188Z,65
2016-04-10T10:14:50.248Z,65
2016-04-10T10:15:49.575Z,60
2016-04-10T10:16:50.366Z,60
2016-04-10T10:17:50.400Z,50
2016-04-10T10:18:50.433Z,50
2016-04-10T10:19:50.467Z,55
2016-04-10T10:20:50.516Z,60
2016-04-10T10:21:50.544Z,60
2016-04-10T10:22:50.583Z,65
2016-04-10T10:23:50.607Z,65
2016-04-10T10:24:50.662Z,65
2016-04-10T10:25:50.654Z,60
2016-04-10T10:26:50.690Z,60
2016-04-10T10:27:50.555Z,60
2016-04-10T10:28:50.732Z,50
2016-04-10T10:29:50.767Z,45
2016-04-10T10:30:50.787Z,50
2016-04-10T10:31:50.807Z,50
2016-04-10T10:32:50.827Z,50
2016-04-10T10:33:50.877Z,55
2016-04-10T10:34:50.880Z,55
2016-04-10T10:35:50.915Z,55
2016-04-10T10:36:50.949Z,50
2016-04-10T10:37:50.952Z,50
2016-04-10T10:38:50.986Z,55
2016-04-10T10:39:51.005Z,50
2016-04-10T10:40:51.039Z,50
2016-04-10T10:41:51.058Z,45
2016-04-10T10:42:51.091Z,45
2016-04-10T10:43:51.110Z,45
2016-04-10T10:44:51.128Z,45
2016-04-10T10:45:51.163Z,50
2016-04-10T10:46:51.181Z,40
2016-04-10T10:47:51.199Z,40
2016-04-10T10:48:51.233Z,35
2016-04-10T10:49:51.251Z,30
2016-04-10T10:50:51.269Z,30
2016-04-10T10:51:51.288Z,30
2016-04-10T10:52:51.321Z,35
2016-04-10T10:53:51.402Z,30
2016-04-10T10:54:51.373Z,30
2016-04-10T10:55:51.423Z,30
2016-04-10T10:56:51.410Z,35
2016-04-10T10:57:51.553Z,40
2016-04-10T10:58:51.509Z,35
2016-04-10T10:59:51.496Z,30
2016-04-10T11:00:51.515Z,35
2016-04-10T11:01:51.534Z,30
2016-04-10T11:02:51.567Z,35
2016-04-10T11:03:51.586Z,35
2016-04-10T11:04:51.604Z,40
2016-04-10T11:05:51.637Z,40
2016-04-10T11:06:51.656Z,40
2016-04-10T11:07:51.690Z,40
2016-04-10T11:08:51.725Z,40
2016-04-10T11:09:51.728Z,45
2016-04-10T11:10:51.761Z,40
2016-04-10T11:11:51.779Z,40
2016-04-10T11:12:51.798Z,30
2016-04-10T11:13:51.816Z,35
2016-04-10T11:14:51.850Z,55
2016-04-10T11:15:51.899Z,45
2016-04-10T11:16:51.902Z,45
2016-04-10T11:17:51.920Z,45
2016-04-10T11:18:51.954Z,50
2016-04-10T11:19:51.972Z,45
2016-04-10T11:20:51.990Z,50
2016-04-10T11:21:52.024Z,50
2016-04-10T11:22:52.043Z,45
2016-04-10T11:23:52.077Z,45
2016-04-10T11:24:52.096Z,40
2016-04-10T11:25:52.129Z,35
2016-04-10T11:26:52.148Z,35
2016-04-10T11:27:52.165Z,35
2016-04-10T11:28:52.199Z,35
2016-04-10T11:29:52.218Z,35
2016-04-10T11:30:52.345Z,35
2016-04-10T11:31:52.364Z,35
2016-04-10T11:32:52.397Z,35
2016-04-10T11:33:52.400Z,40
2016-04-10T11:34:52.419Z,55
2016-04-10T11:35:52.406Z,45
2016-04-10T11:36:52.424Z,40
2016-04-10T11:37:52.428Z,40
2016-04-10T11:38:52.570Z,40
2016-04-10T11:39:52.573Z,40
2016-04-10T11:40:52.576Z,35
2016-04-10T11:41:52.516Z,40
2016-04-10T11:42:52.628Z,40
2016-04-10T11:43:52.646Z,40
2016-04-10T11:44:52.680Z,40
2016-04-10T11:45:52.683Z,40
2016-04-10T11:46:52.686Z,45
2016-04-10T11:47:52.689Z,45
2016-04-10T11:48:52.707Z,45
2016-04-10T11:49:52.725Z,40
2016-04-10T11:50:53.369Z,60
2016-04-10T11:51:52.761Z,50
2016-04-10T11:52:52.796Z,60
2016-04-10T11:53:52.813Z,50
2016-04-10T11:54:52.863Z,35
2016-04-10T11:55:52.866Z,35
2016-04-10T11:56:52.899Z,35
2016-04-10T11:57:52.918Z,25
2016-04-10T11:58:53.046Z,35
2016-04-10T11:59:53.079Z,35
2016-04-10T12:00:53.254Z,35
2016-04-10T12:01:53.101Z,35
2016-04-10T12:02:53.135Z,35
2016-04-10T12:03:53.294Z,35
2016-04-10T12:04:53.312Z,40
2016-04-10T12:05:53.331Z,35
2016-04-10T12:06:53.380Z,40
2016-04-10T12:07:53.398Z,45
2016-04-10T12:08:53.354Z,50
2016-04-10T12:09:53.341Z,50
2016-04-10T12:10:53.094Z,40
2016-04-10T12:11:53.393Z,65
2016-04-10T12:12:53.396Z,45
2016-04-10T12:13:53.414Z,45
2016-04-10T12:14:53.401Z,40
2016-04-10T12:15:53.420Z,35
2016-04-10T12:16:53.469Z,35
2016-04-10T12:17:53.488Z,35
2016-04-10T12:18:53.491Z,35
2016-04-10T12:19:53.508Z,55
2016-04-10T12:20:53.496Z,60
2016-04-10T12:21:53.670Z,65
2016-04-10T12:22:53.627Z,55
2016-04-10T12:23:53.660Z,40
2016-04-10T12:24:54.038Z,35
2016-04-10T12:25:53.697Z,35
2016-04-10T12:26:53.700Z,35
2016-04-10T12:27:53.718Z,45
2016-04-10T12:28:53.721Z,55
2016-04-10T12:29:53.739Z,60
2016-04-10T12:30:53.757Z,55
2016-04-10T12:31:53.776Z,50
2016-04-10T12:32:53.809Z,45
2016-04-10T12:33:53.843Z,40
2016-04-10T12:34:53.861Z,30
2016-04-10T12:35:53.895Z,25
2016-04-10T12:36:54.023Z,25
2016-04-10T12:37:54.025Z,25
2016-04-10T12:38:54.184Z,35
2016-04-10T12:39:53.922Z,35
2016-04-10T12:40:54.097Z,45
2016-04-10T12:41:54.131Z,45
2016-04-10T12:42:54.164Z,60
2016-04-10T12:43:54.183Z,55
2016-04-10T12:44:54.232Z,35
2016-04-10T12:45:54.219Z,45
2016-04-10T12:46:54.269Z,45
2016-04-10T12:47:54.271Z,60
2016-04-10T12:48:54.414Z,45
2016-04-10T12:49:54.370Z,45
2016-04-10T12:50:54.294Z,45
2016-04-10T12:51:54.532Z,45
2016-04-10T12:52:54.410Z,60
2016-04-10T12:53:54.444Z,65
2016-04-10T12:54:54.556Z,55
2016-04-10T12:55:54.402Z,50
2016-04-10T12:56:54.452Z,45
2016-04-10T12:57:54.502Z,45
2016-04-10T12:58:54.488Z,35
2016-04-10T12:59:54.507Z,35
2016-04-10T13:00:54.540Z,45
2016-04-10T13:01:54.574Z,40
2016-04-10T13:02:54.593Z,30
2016-04-10T13:03:54.611Z,40
2016-04-10T13:04:54.677Z,55
2016-04-10T13:05:54.664Z,45
2016-04-10T13:06:54.713Z,50
2016-04-10T13:07:54.716Z,60
2016-04-10T13:08:54.750Z,45
2016-04-10T13:09:55.050Z,55
2016-04-10T13:10:54.802Z,45
2016-04-10T13:11:54.836Z,40
2016-04-10T13:12:54.870Z,40
2016-04-10T13:13:54.873Z,45
2016-04-10T13:14:54.906Z,45
2016-04-10T13:15:54.925Z,50
2016-04-10T13:16:54.958Z,55
2016-04-10T13:17:54.992Z,55
2016-04-10T13:18:55.027Z,60
2016-04-10T13:19:55.030Z,45
2016-04-10T13:20:55.080Z,40
2016-04-10T13:21:55.097Z,40
2016-04-10T13:22:55.116Z,45
2016-04-10T13:23:55.149Z,50
2016-04-10T13:24:55.652Z,60
2016-04-10T13:25:55.311Z,75
2016-04-10T13:26:55.313Z,70
2016-04-10T13:27:55.254Z,60
2016-04-10T13:28:55.381Z,50
2016-04-10T13:29:55.399Z,45
2016-04-10T13:30:55.434Z,55
2016-04-10T13:31:55.373Z,45
2016-04-10T13:32:55.407Z,45
2016-04-10T13:33:55.426Z,40
2016-04-10T13:34:55.445Z,40
2016-04-10T13:35:55.495Z,35
2016-04-10T13:36:55.512Z,40
2016-04-10T13:37:55.515Z,50
2016-04-10T13:38:55.564Z,50
2016-04-10T13:39:55.583Z,50
2016-04-10T13:40:55.617Z,45
2016-04-10T13:41:55.636Z,65
2016-04-10T13:42:55.653Z,70
2016-04-10T13:43:55.688Z,60
2016-04-10T13:44:55.706Z,45
2016-04-10T13:45:55.740Z,40
2016-04-10T13:46:55.775Z,40
2016-04-10T13:47:55.808Z,45
2016-04-10T13:48:55.811Z,40
2016-04-10T13:49:55.094Z,40
2016-04-10T13:50:55.878Z,30
2016-04-10T13:51:55.897Z,35
2016-04-10T13:52:55.930Z,45
2016-04-10T13:53:55.949Z,45
2016-04-10T13:54:56.154Z,60
2016-04-10T13:55:56.001Z,70
2016-04-10T13:56:56.019Z,55
2016-04-10T13:57:56.068Z,40
2016-04-10T13:58:56.088Z,35
2016-04-10T13:59:56.105Z,30
2016-04-10T14:00:56.155Z,35
2016-04-10T14:01:56.283Z,35
2016-04-10T14:02:56.238Z,30
2016-04-10T14:03:56.226Z,30
2016-04-10T14:04:56.353Z,25
2016-04-10T14:05:56.215Z,25
2016-04-10T14:06:56.374Z,25
2016-04-10T14:07:56.424Z,25
2016-04-10T14:08:56.442Z,25
2016-04-10T14:09:56.476Z,30
2016-04-10T14:10:56.447Z,30
2016-04-10T14:11:56.450Z,30
2016-04-10T14:12:56.562Z,25
2016-04-10T14:13:56.596Z,30
2016-04-10T14:14:56.599Z,40
2016-04-10T14:15:56.539Z,35
2016-04-10T14:16:56.558Z,30
2016-04-10T14:17:56.592Z,25
2016-04-10T14:18:56.813Z,25
2016-04-10T14:19:56.659Z,20
2016-04-10T14:20:56.661Z,15
2016-04-10T14:21:56.696Z,15
2016-04-10T14:22:56.714Z,25
2016-04-10T14:23:56.749Z,25
2016-04-10T14:24:56.845Z,25
2016-04-10T14:25:56.910Z,25
2016-04-10T14:26:56.928Z,45
2016-04-10T14:27:56.244Z,45
2016-04-10T14:28:57.074Z,40